Time;durP1;ratioP1;P1;durP2;ratioP2;P2;SDS_P1;SDS_P2;PMS_P1;PMS_P2;Temp;Humidity;BMP_temperature;BMP_pressure;BME280_temperature;BME280_humidity;BME280_pressure;Samples;Min_cycle;Max_cycle;Signal;HPM_P1;HPM_P2
2021/08/08 00:00:26;;;;;;;0.00;0.00;;;16.10;99.90;;;;;;5062719;28;20119;-83
2021/08/08 00:03:13;;;;;;;0.00;0.00;;;16.00;99.90;;;;;;5062712;28;20044;-82
2021/08/08 00:06:00;;;;;;;0.00;0.00;;;16.00;99.90;;;;;;5079944;28;20564;-84
2021/08/08 00:08:47;;;;;;;0.00;0.00;;;16.10;99.90;;;;;;5051014;28;20187;-82
2021/08/08 00:11:36;;;;;;;0.00;0.00;;;16.00;99.90;;;;;;5061364;28;20076;-84
2021/08/08 00:14:24;;;;;;;0.00;0.00;;;16.00;99.90;;;;;;5048882;28;20080;-81
2021/08/08 00:17:11;;;;;;;0.00;0.00;;;16.00;99.90;;;;;;5073361;28;20301;-83
2021/08/08 00:19:58;;;;;;;0.00;0.00;;;16.00;99.90;;;;;;5059758;28;20056;-81
2021/08/08 00:22:45;;;;;;;0.00;0.00;;;15.90;99.90;;;;;;5072942;28;20044;-84
2021/08/08 00:25:33;;;;;;;0.00;0.00;;;15.80;99.90;;;;;;5060334;28;20044;-83
2021/08/08 00:28:21;;;;;;;0.00;0.00;;;15.80;99.90;;;;;;5060470;28;20163;-84
2021/08/08 00:31:08;;;;;;;0.00;0.00;;;15.80;99.90;;;;;;5060386;28;20048;-84
2021/08/08 00:33:55;;;;;;;0.00;0.00;;;15.80;99.90;;;;;;5048664;28;20412;-83
2021/08/08 00:36:43;;;;;;;0.00;0.00;;;15.80;99.90;;;;;;5061863;28;20132;-84
2021/08/08 00:39:31;;;;;;;0.00;0.00;;;15.80;99.90;;;;;;5066022;28;20447;-83
2021/08/08 00:42:18;;;;;;;0.00;0.00;;;15.80;99.90;;;;;;5052584;28;20049;-84
2021/08/08 00:45:08;;;;;;;0.00;0.00;;;15.90;99.90;;;;;;5062337;28;20066;-84
2021/08/08 00:47:55;;;;;;;0.00;0.00;;;15.70;99.90;;;;;;5075178;28;20044;-85
2021/08/08 00:50:42;;;;;;;0.00;0.00;;;15.60;99.90;;;;;;5077347;28;20049;-83
2021/08/08 00:53:30;;;;;;;0.00;0.00;;;15.70;99.90;;;;;;5063993;28;20044;-83
2021/08/08 00:56:17;;;;;;;0.00;0.00;;;15.70;99.90;;;;;;5054746;28;20400;-83
2021/08/08 00:59:05;;;;;;;0.00;0.00;;;15.60;99.90;;;;;;5063126;28;20523;-82
2021/08/08 01:01:54;;;;;;;0.00;0.00;;;15.60;99.90;;;;;;5056349;28;20036;-82
2021/08/08 01:04:48;;;;;;;0.00;0.00;;;15.60;99.90;;;;;;5059140;28;20439;-83
2021/08/08 01:07:42;;;;;;;0.00;0.00;;;15.50;99.90;;;;;;5064006;28;20040;-84
2021/08/08 01:10:31;;;;;;;0.00;0.00;;;15.40;99.90;;;;;;5064820;28;20033;-83
2021/08/08 01:13:19;;;;;;;0.00;0.00;;;15.40;99.90;;;;;;5065586;28;20052;-79
2021/08/08 01:16:07;;;;;;;0.00;0.00;;;15.40;99.90;;;;;;5063824;28;20140;-85
2021/08/08 01:18:57;;;;;;;0.00;0.00;;;15.40;99.90;;;;;;5059112;28;20127;-83
2021/08/08 01:21:47;;;;;;;0.00;0.00;;;15.40;99.90;;;;;;5061681;28;20108;-83
2021/08/08 01:24:36;;;;;;;0.00;0.00;;;15.40;99.90;;;;;;5071438;28;20060;-83
2021/08/08 01:27:23;;;;;;;0.00;0.00;;;15.40;99.90;;;;;;5053928;28;20048;-83
2021/08/08 01:30:11;;;;;;;0.00;0.00;;;15.30;99.90;;;;;;5059648;28;20043;-83
2021/08/08 01:33:03;;;;;;;0.00;0.00;;;15.40;99.90;;;;;;5063222;28;20105;-82
2021/08/08 01:35:51;;;;;;;0.00;0.00;;;15.40;99.90;;;;;;5060754;28;20055;-83
2021/08/08 01:38:43;;;;;;;0.00;0.00;;;15.20;99.90;;;;;;5060724;28;20052;-82
2021/08/08 01:41:40;;;;;;;0.00;0.00;;;15.20;99.90;;;;;;5061069;28;20152;-84
2021/08/08 01:44:33;;;;;;;0.00;0.00;;;15.20;99.90;;;;;;5060095;28;20045;-83
2021/08/08 01:47:26;;;;;;;0.00;0.00;;;15.20;99.90;;;;;;5059020;28;20045;-84
2021/08/08 01:50:15;;;;;;;0.00;0.00;;;15.30;99.90;;;;;;5073777;28;20062;-84
2021/08/08 01:53:03;;;;;;;0.00;0.00;;;15.20;99.90;;;;;;5064880;28;20044;-84
2021/08/08 01:55:50;;;;;;;0.00;0.00;;;15.20;99.90;;;;;;5061272;28;20508;-83
2021/08/08 01:58:39;;;;;;;0.00;0.00;;;15.20;99.90;;;;;;5065413;28;20055;-81
2021/08/08 02:01:27;;;;;;;0.00;0.00;;;15.20;99.90;;;;;;5065553;28;20043;-83
2021/08/08 02:04:16;;;;;;;0.00;0.00;;;15.20;99.90;;;;;;5058375;28;20094;-84
2021/08/08 02:07:04;;;;;;;0.00;0.00;;;15.20;99.90;;;;;;5059559;28;20098;-84
2021/08/08 02:09:51;;;;;;;0.00;0.00;;;15.20;99.90;;;;;;5046677;28;20055;-84
2021/08/08 02:12:42;;;;;;;0.00;0.00;;;15.10;99.90;;;;;;5060244;28;20094;-83
2021/08/08 02:15:30;;;;;;;0.00;0.00;;;15.10;99.90;;;;;;5061138;28;20055;-84
2021/08/08 02:18:18;;;;;;;0.00;0.00;;;15.20;99.90;;;;;;5075313;28;20507;-83
2021/08/08 02:21:05;;;;;;;0.00;0.00;;;15.20;99.90;;;;;;5064267;28;20044;-83
2021/08/08 02:23:52;;;;;;;0.00;0.00;;;15.20;99.90;;;;;;5067136;28;20044;-83
2021/08/08 02:26:39;;;;;;;0.00;0.00;;;15.20;99.90;;;;;;5063812;28;20044;-83
2021/08/08 02:29:26;;;;;;;0.00;0.00;;;15.20;99.90;;;;;;5061591;28;20045;-83
2021/08/08 02:32:15;;;;;;;0.00;0.00;;;15.20;99.90;;;;;;5062193;28;20504;-84
2021/08/08 02:35:03;;;;;;;0.00;0.00;;;15.30;99.90;;;;;;5061265;28;20045;-84
2021/08/08 02:37:50;;;;;;;0.00;0.00;;;15.30;99.90;;;;;;5063841;28;20045;-84
2021/08/08 02:40:38;;;;;;;0.00;0.00;;;15.30;99.90;;;;;;5055464;28;20051;-83
2021/08/08 02:43:25;;;;;;;0.00;0.00;;;15.30;99.90;;;;;;5067769;28;20158;-83
2021/08/08 02:46:12;;;;;;;0.00;0.00;;;15.40;99.90;;;;;;5061704;28;20506;-83
2021/08/08 02:49:01;;;;;;;0.00;0.00;;;15.40;99.90;;;;;;5073436;28;20040;-84
2021/08/08 02:51:48;;;;;;;0.00;0.00;;;15.40;99.90;;;;;;5064881;28;20111;-83
2021/08/08 02:54:35;;;;;;;0.00;0.00;;;15.50;99.90;;;;;;5059947;28;20048;-83
2021/08/08 02:57:22;;;;;;;0.00;0.00;;;15.50;99.90;;;;;;5058085;28;20055;-84
2021/08/08 03:00:10;;;;;;;0.00;0.00;;;15.60;99.90;;;;;;5061595;28;20143;-83
2021/08/08 03:02:57;;;;;;;0.00;0.00;;;15.60;99.90;;;;;;5057074;28;20045;-82
2021/08/08 03:05:46;;;;;;;0.00;0.00;;;15.70;99.90;;;;;;5059935;28;20127;-84
2021/08/08 03:08:33;;;;;;;0.00;0.00;;;15.60;99.90;;;;;;5046745;28;20052;-83
2021/08/08 03:11:20;;;;;;;0.00;0.00;;;15.70;99.90;;;;;;5065882;28;20051;-84
2021/08/08 03:14:07;;;;;;;0.00;0.00;;;15.70;99.90;;;;;;5066525;28;20326;-84
2021/08/08 03:16:54;;;;;;;0.00;0.00;;;15.70;99.90;;;;;;5055936;28;20045;-84
2021/08/08 03:19:41;;;;;;;0.00;0.00;;;15.80;99.90;;;;;;5055754;28;20203;-83
2021/08/08 03:22:30;;;;;;;0.00;0.00;;;15.90;99.90;;;;;;5064738;28;20131;-83
2021/08/08 03:25:17;;;;;;;0.00;0.00;;;16.00;99.90;;;;;;5073751;28;20049;-84
2021/08/08 03:28:05;;;;;;;0.00;0.00;;;15.90;99.90;;;;;;5061275;28;20056;-83
2021/08/08 03:30:52;;;;;;;0.00;0.00;;;16.00;99.90;;;;;;5063061;28;20128;-84
2021/08/08 03:33:39;;;;;;;0.00;0.00;;;16.00;99.90;;;;;;5067907;28;20057;-83
2021/08/08 03:36:26;;;;;;;0.00;0.00;;;16.00;99.90;;;;;;5051776;28;20129;-84
2021/08/08 03:39:16;;;;;;;0.00;0.00;;;16.00;99.90;;;;;;5057728;28;20056;-84
2021/08/08 03:42:03;;;;;;;0.00;0.00;;;16.10;99.90;;;;;;5062817;28;20054;-84
2021/08/08 03:44:52;;;;;;;0.00;0.00;;;16.10;99.90;;;;;;5066142;28;20055;-84
2021/08/08 03:47:39;;;;;;;0.00;0.00;;;16.00;99.90;;;;;;5070056;28;20087;-83
2021/08/08 03:50:26;;;;;;;0.00;0.00;;;16.10;99.90;;;;;;5059855;28;20102;-83
2021/08/08 03:53:13;;;;;;;0.00;0.00;;;16.10;99.90;;;;;;5063371;28;20075;-83
2021/08/08 03:56:02;;;;;;;0.00;0.00;;;16.20;99.90;;;;;;5069045;28;20044;-84
2021/08/08 03:58:49;;;;;;;0.00;0.00;;;16.20;99.90;;;;;;5059965;28;20048;-84
2021/08/08 04:01:36;;;;;;;0.00;0.00;;;16.20;99.90;;;;;;5062375;28;20124;-80
2021/08/08 04:04:23;;;;;;;0.00;0.00;;;16.20;99.90;;;;;;5059196;28;20045;-85
2021/08/08 04:07:11;;;;;;;0.00;0.00;;;16.20;99.90;;;;;;5062345;28;20135;-83
2021/08/08 04:09:58;;;;;;;0.00;0.00;;;16.20;99.90;;;;;;5061099;28;20040;-83
2021/08/08 04:12:46;;;;;;;0.00;0.00;;;16.30;99.90;;;;;;5056172;28;20420;-82
2021/08/08 04:15:33;;;;;;;0.00;0.00;;;16.30;99.90;;;;;;5062004;28;20071;-84
2021/08/08 04:18:21;;;;;;;0.00;0.00;;;16.30;99.90;;;;;;5049678;28;20516;-84
2021/08/08 04:21:09;;;;;;;0.00;0.00;;;16.30;99.90;;;;;;5058848;28;20514;-83
2021/08/08 04:23:56;;;;;;;0.00;0.00;;;16.30;99.90;;;;;;5064253;28;20044;-83
2021/08/08 04:26:43;;;;;;;0.00;0.00;;;16.30;99.90;;;;;;5062271;28;20048;-82
2021/08/08 04:29:36;;;;;;;0.00;0.00;;;16.30;99.90;;;;;;5054519;28;20040;-84
2021/08/08 04:32:25;;;;;;;0.00;0.00;;;16.40;99.90;;;;;;5070925;28;20041;-84
2021/08/08 04:35:12;;;;;;;0.00;0.00;;;16.50;99.90;;;;;;5074712;28;20044;-83
2021/08/08 04:38:00;;;;;;;0.00;0.00;;;16.60;99.90;;;;;;5066036;28;20344;-84
2021/08/08 04:40:47;;;;;;;0.00;0.00;;;16.60;99.90;;;;;;5054392;28;20173;-84
2021/08/08 04:43:34;;;;;;;0.00;0.00;;;16.50;99.90;;;;;;5067873;28;20090;-84
2021/08/08 04:46:23;;;;;;;0.00;0.00;;;16.60;99.90;;;;;;5082325;28;20047;-84
2021/08/08 04:49:10;;;;;;;0.00;0.00;;;16.60;99.90;;;;;;5074512;28;20059;-84
2021/08/08 04:51:59;;;;;;;0.00;0.00;;;16.60;99.90;;;;;;5072513;28;20040;-83
2021/08/08 04:54:46;;;;;;;0.00;0.00;;;16.60;99.90;;;;;;5055957;28;20196;-84
2021/08/08 04:57:33;;;;;;;0.00;0.00;;;16.60;99.90;;;;;;5067072;28;20116;-84
2021/08/08 05:00:20;;;;;;;0.00;0.00;;;16.70;99.90;;;;;;5061196;28;20056;-84
2021/08/08 05:03:08;;;;;;;0.00;0.00;;;16.60;99.90;;;;;;5072020;28;20047;-83
2021/08/08 05:05:55;;;;;;;0.00;0.00;;;16.60;99.90;;;;;;5058940;28;20044;-82
2021/08/08 05:08:43;;;;;;;0.00;0.00;;;16.60;99.90;;;;;;5054715;28;20119;-84
2021/08/08 05:11:30;;;;;;;0.00;0.00;;;16.70;99.90;;;;;;5073633;28;20044;-84
2021/08/08 05:14:17;;;;;;;0.00;0.00;;;16.80;99.90;;;;;;5073799;28;20050;-83
2021/08/08 05:17:05;;;;;;;0.00;0.00;;;16.90;99.90;;;;;;5068284;28;20514;-83
2021/08/08 05:19:53;;;;;;;0.00;0.00;;;17.00;99.90;;;;;;5051262;28;20601;-84
2021/08/08 05:22:41;;;;;;;0.00;0.00;;;17.10;99.90;;;;;;5057692;28;20085;-84
2021/08/08 05:25:28;;;;;;;0.00;0.00;;;17.10;99.90;;;;;;5057275;28;20393;-84
2021/08/08 05:28:15;;;;;;;0.00;0.00;;;17.10;99.90;;;;;;5057583;28;20567;-84
2021/08/08 05:31:02;;;;;;;0.00;0.00;;;17.10;99.90;;;;;;5057615;28;20049;-85
2021/08/08 05:33:49;;;;;;;0.00;0.00;;;17.20;99.90;;;;;;5058783;28;20055;-83
2021/08/08 05:36:42;;;;;;;0.00;0.00;;;17.20;99.90;;;;;;5054202;28;20040;-84
2021/08/08 05:39:29;;;;;;;0.00;0.00;;;17.20;99.90;;;;;;5052954;28;20494;-84
2021/08/08 05:42:17;;;;;;;0.00;0.00;;;17.10;99.90;;;;;;5070685;28;20120;-83
2021/08/08 05:45:05;;;;;;;0.00;0.00;;;17.10;99.90;;;;;;5054946;28;20044;-82
2021/08/08 05:47:55;;;;;;;0.00;0.00;;;17.10;99.90;;;;;;5070268;28;20835;-84
2021/08/08 05:50:42;;;;;;;0.00;0.00;;;17.10;99.90;;;;;;5061179;28;20055;-82
2021/08/08 05:53:30;;;;;;;0.00;0.00;;;17.20;99.90;;;;;;5058303;28;20047;-84
2021/08/08 05:56:17;;;;;;;0.00;0.00;;;17.20;99.90;;;;;;5073928;28;20044;-83
2021/08/08 05:59:04;;;;;;;0.00;0.00;;;17.20;99.90;;;;;;5063577;28;20051;-82
2021/08/08 06:01:52;;;;;;;0.00;0.00;;;17.20;99.90;;;;;;5068955;28;20036;-84
2021/08/08 06:04:39;;;;;;;0.00;0.00;;;17.20;99.90;;;;;;5059421;28;20045;-84
2021/08/08 06:07:28;;;;;;;0.00;0.00;;;17.30;99.90;;;;;;5081156;28;20119;-84
2021/08/08 06:10:16;;;;;;;0.00;0.00;;;17.40;99.90;;;;;;5060158;28;20582;-85
2021/08/08 06:13:04;;;;;;;0.00;0.00;;;17.70;99.90;;;;;;5061288;28;20044;-82
2021/08/08 06:15:51;;;;;;;0.00;0.00;;;17.80;99.90;;;;;;5065241;28;20054;-84
2021/08/08 06:18:38;;;;;;;0.00;0.00;;;17.80;99.90;;;;;;5078079;28;20056;-83
2021/08/08 06:21:25;;;;;;;0.00;0.00;;;17.90;99.90;;;;;;5078751;28;20056;-84
2021/08/08 06:24:12;;;;;;;0.00;0.00;;;17.80;99.90;;;;;;5069005;28;20053;-84
2021/08/08 06:27:00;;;;;;;0.00;0.00;;;17.70;99.90;;;;;;5056691;28;20453;-83
2021/08/08 06:29:48;;;;;;;0.00;0.00;;;17.80;99.90;;;;;;5063227;28;20044;-84
2021/08/08 06:32:35;;;;;;;0.00;0.00;;;17.90;99.90;;;;;;5066700;28;20151;-83
2021/08/08 06:35:22;;;;;;;0.00;0.00;;;18.10;99.90;;;;;;5051645;28;20049;-84
2021/08/08 06:38:09;;;;;;;0.00;0.00;;;18.10;99.90;;;;;;5059277;28;20131;-83
2021/08/08 06:40:56;;;;;;;0.00;0.00;;;18.30;99.90;;;;;;5055454;28;20467;-84
2021/08/08 06:43:45;;;;;;;0.00;0.00;;;18.30;99.90;;;;;;5060232;28;20169;-83
2021/08/08 06:46:32;;;;;;;0.00;0.00;;;18.50;99.90;;;;;;5058227;28;20048;-84
2021/08/08 06:49:19;;;;;;;0.00;0.00;;;18.50;99.90;;;;;;5059499;28;20049;-83
2021/08/08 06:52:06;;;;;;;0.00;0.00;;;18.50;99.90;;;;;;5067452;28;20037;-83
2021/08/08 06:54:53;;;;;;;0.00;0.00;;;18.60;99.90;;;;;;5061423;28;20044;-83
2021/08/08 06:57:41;;;;;;;0.00;0.00;;;18.70;99.90;;;;;;5058040;28;20048;-84
2021/08/08 07:00:29;;;;;;;0.00;0.00;;;18.80;99.90;;;;;;5060106;28;20051;-81
2021/08/08 07:03:32;;;;;;;0.00;0.00;;;18.90;99.90;;;;;;5057614;28;20044;-84
2021/08/08 07:06:19;;;;;;;0.00;0.00;;;19.00;99.90;;;;;;5046914;28;20052;-84
2021/08/08 07:09:08;;;;;;;0.00;0.00;;;18.90;99.90;;;;;;5053782;28;20041;-83
2021/08/08 07:11:55;;;;;;;0.00;0.00;;;18.90;99.90;;;;;;5063160;28;20495;-84
2021/08/08 07:14:42;;;;;;;0.00;0.00;;;18.80;99.90;;;;;;5067779;28;20048;-84
2021/08/08 07:17:31;;;;;;;0.00;0.00;;;18.70;99.90;;;;;;5053687;28;20055;-84
2021/08/08 07:20:18;;;;;;;0.00;0.00;;;18.80;99.90;;;;;;5056683;28;20048;-84
2021/08/08 07:23:05;;;;;;;0.00;0.00;;;18.70;99.90;;;;;;5065717;28;20050;-84
2021/08/08 07:25:52;;;;;;;0.00;0.00;;;18.70;99.90;;;;;;5064401;28;20495;-84
2021/08/08 07:28:39;;;;;;;0.00;0.00;;;19.00;99.90;;;;;;5066464;28;20060;-84
2021/08/08 07:31:26;;;;;;;0.00;0.00;;;19.20;99.90;;;;;;5065121;28;20069;-84
2021/08/08 07:34:15;;;;;;;0.00;0.00;;;19.20;99.90;;;;;;5056628;28;20533;-82
2021/08/08 07:37:02;;;;;;;0.00;0.00;;;19.30;99.90;;;;;;5065661;28;20045;-82
2021/08/08 07:39:49;;;;;;;0.00;0.00;;;19.40;99.90;;;;;;5072038;28;20140;-84
2021/08/08 07:42:36;;;;;;;0.00;0.00;;;19.70;99.90;;;;;;5068904;28;20040;-84
2021/08/08 07:45:23;;;;;;;0.00;0.00;;;19.60;99.90;;;;;;5067870;28;20074;-84
2021/08/08 07:48:11;;;;;;;0.00;0.00;;;19.60;99.90;;;;;;5057826;28;20044;-84
2021/08/08 07:50:59;;;;;;;0.00;0.00;;;19.70;99.90;;;;;;5068415;28;20123;-84
2021/08/08 07:53:46;;;;;;;0.00;0.00;;;19.70;99.90;;;;;;5061255;28;20050;-84
2021/08/08 07:56:33;;;;;;;0.00;0.00;;;19.70;99.90;;;;;;5069441;28;20048;-84
2021/08/08 07:59:21;;;;;;;0.00;0.00;;;19.70;99.90;;;;;;5053027;28;20056;-85
2021/08/08 08:02:08;;;;;;;0.00;0.00;;;19.70;99.90;;;;;;5060264;28;20041;-83
2021/08/08 08:04:59;;;;;;;0.00;0.00;;;19.60;99.90;;;;;;5056946;28;20041;-83
2021/08/08 08:07:47;;;;;;;0.00;0.00;;;19.30;99.90;;;;;;5059480;28;20055;-84
2021/08/08 08:10:35;;;;;;;0.00;0.00;;;19.20;99.90;;;;;;5052102;28;20048;-82
2021/08/08 08:13:22;;;;;;;0.00;0.00;;;19.10;99.90;;;;;;5053511;28;20037;-84
2021/08/08 08:16:10;;;;;;;0.00;0.00;;;19.10;99.90;;;;;;5057636;28;20051;-82
2021/08/08 08:18:57;;;;;;;0.00;0.00;;;19.10;99.90;;;;;;5060408;28;20052;-84
2021/08/08 08:21:45;;;;;;;0.00;0.00;;;19.20;99.90;;;;;;5055504;28;20048;-84
2021/08/08 08:24:34;;;;;;;0.00;0.00;;;19.30;99.90;;;;;;5055434;28;20062;-84
2021/08/08 08:27:21;;;;;;;0.00;0.00;;;19.50;99.90;;;;;;5064586;28;20037;-84
2021/08/08 08:30:09;;;;;;;0.00;0.00;;;19.70;99.90;;;;;;5054111;28;20058;-84
2021/08/08 08:32:57;;;;;;;0.00;0.00;;;19.80;99.90;;;;;;5074740;28;20365;-81
2021/08/08 08:36:00;;;;;;;0.00;0.00;;;19.90;99.90;;;;;;5071451;28;20048;-84
2021/08/08 08:38:47;;;;;;;0.00;0.00;;;19.90;99.90;;;;;;5068284;28;20567;-82
2021/08/08 08:41:35;;;;;;;0.00;0.00;;;19.80;99.90;;;;;;5046069;28;20061;-84
2021/08/08 08:44:23;;;;;;;0.00;0.00;;;19.80;99.90;;;;;;5057515;28;20049;-85
2021/08/08 08:47:14;;;;;;;0.00;0.00;;;19.90;99.90;;;;;;5057143;28;20048;-84
2021/08/08 08:50:05;;;;;;;0.00;0.00;;;20.10;99.90;;;;;;5072305;28;20044;-84
2021/08/08 08:52:53;;;;;;;0.00;0.00;;;20.20;99.90;;;;;;5069546;28;20040;-84
2021/08/08 08:55:40;;;;;;;0.00;0.00;;;20.10;99.90;;;;;;5070067;28;20094;-82
2021/08/08 08:58:30;;;;;;;0.00;0.00;;;20.20;99.90;;;;;;5062539;28;20045;-84
2021/08/08 09:01:18;;;;;;;0.00;0.00;;;20.40;99.90;;;;;;5061101;28;20127;-84
2021/08/08 09:04:06;;;;;;;0.00;0.00;;;20.70;99.90;;;;;;5072406;28;20041;-83
2021/08/08 09:06:53;;;;;;;0.00;0.00;;;20.80;99.90;;;;;;5068747;28;20488;-83
2021/08/08 09:09:40;;;;;;;0.00;0.00;;;21.00;99.90;;;;;;5055884;28;20102;-84
2021/08/08 09:12:30;;;;;;;0.00;0.00;;;21.20;99.80;;;;;;5046383;28;20044;-84
2021/08/08 09:15:29;;;;;;;0.00;0.00;;;21.30;99.90;;;;;;5056132;28;20127;-84
2021/08/08 09:18:21;;;;;;;0.00;0.00;;;21.30;99.90;;;;;;5055414;28;20504;-84
2021/08/08 09:21:09;;;;;;;0.00;0.00;;;21.40;99.90;;;;;;5063336;28;20492;-85
2021/08/08 09:23:58;;;;;;;0.00;0.00;;;21.40;99.50;;;;;;5055563;28;20048;-84
2021/08/08 09:26:45;;;;;;;0.00;0.00;;;21.30;99.40;;;;;;5067737;28;20048;-84
2021/08/08 09:29:34;;;;;;;0.00;0.00;;;21.30;99.70;;;;;;5058521;28;20052;-84
2021/08/08 09:32:28;;;;;;;0.00;0.00;;;21.00;99.90;;;;;;5057368;28;20045;-84
2021/08/08 09:35:21;;;;;;;0.00;0.00;;;21.00;99.90;;;;;;5045880;28;20048;-84
2021/08/08 09:38:10;;;;;;;0.00;0.00;;;21.00;99.90;;;;;;5056562;28;20064;-83
2021/08/08 09:40:59;;;;;;;0.00;0.00;;;21.20;99.50;;;;;;5058472;28;20144;-84
2021/08/08 09:43:46;;;;;;;0.00;0.00;;;21.30;99.60;;;;;;5064310;28;20045;-84
2021/08/08 09:46:33;;;;;;;0.00;0.00;;;21.20;99.30;;;;;;5059292;28;20075;-84
2021/08/08 09:49:24;;;;;;;0.00;0.00;;;21.30;99.90;;;;;;5060641;28;20531;-84
2021/08/08 09:52:20;;;;;;;0.00;0.00;;;21.30;99.50;;;;;;5061585;28;20415;-84
2021/08/08 09:55:19;;;;;;;0.00;0.00;;;21.30;99.80;;;;;;5062300;28;20508;-83
2021/08/08 09:58:16;;;;;;;0.00;0.00;;;21.50;99.60;;;;;;5049859;28;20603;-84
2021/08/08 10:01:03;;;;;;;0.00;0.00;;;21.60;99.20;;;;;;5056594;28;20419;-84
2021/08/08 10:03:50;;;;;;;0.00;0.00;;;21.50;98.30;;;;;;5063436;28;20123;-84
2021/08/08 10:06:40;;;;;;;0.00;0.00;;;21.30;99.10;;;;;;5065741;28;20131;-84
2021/08/08 10:09:27;;;;;;;;;;;21.20;99.00;;;;;;5050220;28;20496;-84
2021/08/08 10:12:35;;;;;;;0.00;0.00;;;21.80;99.70;;;;;;5045332;28;19921;-84
2021/08/08 10:15:22;;;;;;;0.00;0.00;;;21.00;98.70;;;;;;5057385;28;20642;-84
2021/08/08 10:18:12;;;;;;;0.00;0.00;;;20.90;99.30;;;;;;5058801;28;20044;-84
2021/08/08 10:21:00;;;;;;;0.00;0.00;;;21.10;99.60;;;;;;5056396;28;20397;-84
2021/08/08 10:23:51;;;;;;;0.00;0.00;;;21.20;98.90;;;;;;5046826;28;20041;-83
2021/08/08 10:26:38;;;;;;;0.00;0.00;;;21.40;98.80;;;;;;5058607;28;20170;-84
2021/08/08 10:29:26;;;;;;;0.00;0.00;;;21.60;99.80;;;;;;5058407;28;20119;-84
2021/08/08 10:32:13;;;;;;;0.00;0.00;;;21.80;99.40;;;;;;5072574;28;20063;-82
2021/08/08 10:35:10;;;;;;;0.00;0.00;;;22.10;98.30;;;;;;5067477;28;20526;-82
2021/08/08 10:37:59;;;;;;;0.00;0.00;;;22.40;98.60;;;;;;5058351;28;20059;-85
2021/08/08 10:40:48;;;;;;;0.00;0.00;;;22.70;98.50;;;;;;5072918;28;20055;-84
2021/08/08 10:43:35;;;;;;;0.00;0.00;;;22.50;97.70;;;;;;5051649;28;20056;-85
2021/08/08 10:46:23;;;;;;;0.00;0.00;;;22.20;97.60;;;;;;5083262;28;20048;-84
2021/08/08 10:49:10;;;;;;;0.00;0.00;;;22.20;97.30;;;;;;5054726;28;20041;-84
2021/08/08 10:51:58;;;;;;;0.00;0.00;;;22.20;97.90;;;;;;5067762;28;20508;-85
2021/08/08 10:54:47;;;;;;;0.00;0.00;;;21.90;97.90;;;;;;5059597;28;20412;-84
2021/08/08 10:57:42;;;;;;;0.00;0.00;;;21.90;97.80;;;;;;5060222;28;20044;-84
2021/08/08 11:00:32;;;;;;;0.00;0.00;;;21.80;97.60;;;;;;5063576;28;20492;-84
2021/08/08 11:03:19;;;;;;;;;;;21.70;97.80;;;;;;5064143;28;20041;-83
2021/08/08 11:06:18;;;;;;;0.00;0.00;;;21.80;97.80;;;;;;5070486;28;19920;-85
2021/08/08 11:09:05;;;;;;;0.00;0.00;;;22.00;98.10;;;;;;5068093;28;20036;-84
2021/08/08 11:11:56;;;;;;;0.00;0.00;;;21.90;97.90;;;;;;5072389;28;20056;-84
2021/08/08 11:14:48;;;;;;;0.00;0.00;;;21.50;98.20;;;;;;5059679;28;20053;-84
2021/08/08 11:17:36;;;;;;;0.00;0.00;;;21.60;99.20;;;;;;5066285;28;20059;-81
2021/08/08 11:20:26;;;;;;;0.00;0.00;;;21.60;99.10;;;;;;5069968;28;20095;-84
2021/08/08 11:23:14;;;;;;;0.00;0.00;;;21.80;98.70;;;;;;5061912;28;20626;-85
2021/08/08 11:26:01;;;;;;;0.00;0.00;;;21.90;98.50;;;;;;5065666;28;20051;-84
2021/08/08 11:28:52;;;;;;;0.00;0.00;;;22.00;97.50;;;;;;5053009;28;20254;-84
2021/08/08 11:31:41;;;;;;;0.00;0.00;;;21.90;97.20;;;;;;5056388;28;20045;-85
2021/08/08 11:34:28;;;;;;;0.00;0.00;;;21.90;96.20;;;;;;5065130;28;20047;-84
2021/08/08 11:37:15;;;;;;;0.00;0.00;;;21.90;96.70;;;;;;5069248;28;20045;-84
2021/08/08 11:40:14;;;;;;;0.00;0.00;;;22.00;96.80;;;;;;5058003;28;20428;-84
2021/08/08 11:43:03;;;;;;;0.00;0.00;;;21.90;96.10;;;;;;5060232;28;20036;-84
2021/08/08 11:45:50;;;;;;;0.00;0.00;;;21.90;96.20;;;;;;5073769;28;20119;-84
2021/08/08 11:48:39;;;;;;;0.00;0.00;;;22.00;95.40;;;;;;5060536;28;20048;-82
2021/08/08 11:51:26;;;;;;;0.00;0.00;;;22.10;97.40;;;;;;5066347;28;20496;-84
2021/08/08 11:54:13;;;;;;;0.00;0.00;;;22.30;95.90;;;;;;5061609;28;20048;-85
2021/08/08 11:57:01;;;;;;;0.00;0.00;;;22.40;96.10;;;;;;5084046;28;20127;-82
2021/08/08 11:59:48;;;;;;;0.00;0.00;;;22.60;95.90;;;;;;5056692;28;20074;-85
2021/08/08 12:02:35;;;;;;;0.00;0.00;;;22.50;95.30;;;;;;5053549;28;20419;-84
2021/08/08 12:05:24;;;;;;;0.00;0.00;;;22.50;94.70;;;;;;5062277;28;20048;-82
2021/08/08 12:08:12;;;;;;;0.00;0.00;;;22.30;95.00;;;;;;5057453;28;20045;-85
2021/08/08 12:11:01;;;;;;;0.00;0.00;;;22.40;95.50;;;;;;5057333;28;20557;-84
2021/08/08 12:14:02;;;;;;;0.00;0.00;;;22.70;95.50;;;;;;5078686;28;20522;-82
2021/08/08 12:16:59;;;;;;;0.00;0.00;;;23.00;96.20;;;;;;5076080;28;20130;-85
2021/08/08 12:19:48;;;;;;;0.00;0.00;;;23.30;94.30;;;;;;5073984;28;20040;-84
2021/08/08 12:22:37;;;;;;;0.00;0.00;;;23.30;93.70;;;;;;5067435;28;20050;-81
2021/08/08 12:25:24;;;;;;;0.00;0.00;;;23.20;94.20;;;;;;5045468;28;20431;-84
2021/08/08 12:28:21;;;;;;;0.00;0.00;;;23.30;94.30;;;;;;5068799;28;20583;-84
2021/08/08 12:31:10;;;;;;;0.00;0.00;;;23.30;93.70;;;;;;5059637;28;20045;-84
2021/08/08 12:33:59;;;;;;;0.00;0.00;;;23.30;93.30;;;;;;5056238;28;20401;-84
2021/08/08 12:36:46;;;;;;;0.00;0.00;;;23.40;93.70;;;;;;5073372;28;20609;-82
2021/08/08 12:39:35;;;;;;;0.00;0.00;;;23.20;94.20;;;;;;5048945;28;20052;-84
2021/08/08 12:42:24;;;;;;;0.00;0.00;;;23.30;93.60;;;;;;5069533;28;20045;-83
2021/08/08 12:45:13;;;;;;;0.00;0.00;;;23.10;93.00;;;;;;5074812;28;20127;-85
2021/08/08 12:48:04;;;;;;;0.00;0.00;;;23.20;93.90;;;;;;5061287;28;20577;-84
2021/08/08 12:50:51;;;;;;;0.00;0.00;;;23.40;94.30;;;;;;5080693;28;20138;-84
2021/08/08 12:53:38;;;;;;;0.00;0.00;;;23.10;91.90;;;;;;5055149;28;20044;-84
2021/08/08 12:56:26;;;;;;;0.00;0.00;;;23.20;93.40;;;;;;5057349;28;20127;-82
2021/08/08 12:59:14;;;;;;;0.00;0.00;;;23.40;94.40;;;;;;5062381;28;20045;-84
2021/08/08 13:02:01;;;;;;;0.00;0.00;;;23.50;93.10;;;;;;5064788;28;20055;-84
2021/08/08 13:04:48;;;;;;;0.00;0.00;;;23.40;92.90;;;;;;5061394;28;20051;-83
2021/08/08 13:07:35;;;;;;;0.00;0.00;;;23.50;94.00;;;;;;5061222;28;20139;-85
2021/08/08 13:10:22;;;;;;;0.00;0.00;;;23.50;92.60;;;;;;5075172;28;20036;-84
2021/08/08 13:13:10;;;;;;;0.00;0.00;;;23.50;93.70;;;;;;5072051;28;20092;-85
2021/08/08 13:15:57;;;;;;;0.00;0.00;;;23.70;94.10;;;;;;5072094;28;20526;-84
2021/08/08 13:18:45;;;;;;;0.00;0.00;;;24.00;93.70;;;;;;5050634;28;20145;-80
2021/08/08 13:21:33;;;;;;;0.00;0.00;;;24.20;92.10;;;;;;5060081;28;20415;-84
2021/08/08 13:24:20;;;;;;;0.00;0.00;;;24.40;92.00;;;;;;5088235;28;20055;-81
2021/08/08 13:27:07;;;;;;;0.00;0.00;;;24.20;92.30;;;;;;5074201;28;20127;-84
2021/08/08 13:29:56;;;;;;;0.00;0.00;;;24.40;91.90;;;;;;5073788;28;20070;-81
2021/08/08 13:32:43;;;;;;;0.00;0.00;;;24.00;90.70;;;;;;5058024;28;20048;-81
2021/08/08 13:35:30;;;;;;;0.00;0.00;;;23.90;92.90;;;;;;5067873;28;20122;-83
2021/08/08 13:38:17;;;;;;;0.00;0.00;;;23.80;92.40;;;;;;5057979;28;20048;-82
2021/08/08 13:41:05;;;;;;;0.00;0.00;;;23.40;92.30;;;;;;5056857;28;20063;-86
2021/08/08 13:43:52;;;;;;;0.00;0.00;;;22.80;91.50;;;;;;5057560;28;20041;-84
2021/08/08 13:46:40;;;;;;;0.00;0.00;;;23.10;92.40;;;;;;5057512;28;20048;-85
2021/08/08 13:49:28;;;;;;;0.00;0.00;;;22.60;93.80;;;;;;5055394;28;20127;-81
2021/08/08 13:52:15;;;;;;;0.00;0.00;;;23.10;91.90;;;;;;5066063;28;20098;-84
2021/08/08 13:55:03;;;;;;;0.00;0.00;;;23.30;91.30;;;;;;5070034;28;20037;-85
2021/08/08 13:57:50;;;;;;;0.00;0.00;;;23.00;91.30;;;;;;5066682;28;20048;-85
2021/08/08 14:00:38;;;;;;;0.00;0.00;;;22.90;91.20;;;;;;5067458;28;20048;-84
2021/08/08 14:03:27;;;;;;;0.00;0.00;;;22.90;92.70;;;;;;5074804;28;20129;-84
2021/08/08 14:06:14;;;;;;;0.00;0.00;;;22.80;92.60;;;;;;5064819;28;20052;-84
2021/08/08 14:09:02;;;;;;;0.00;0.00;;;22.80;93.60;;;;;;5043912;28;20453;-84
2021/08/08 14:11:50;;;;;;;0.00;0.00;;;22.90;92.60;;;;;;5058338;28;20051;-81
2021/08/08 14:14:42;;;;;;;0.00;0.00;;;22.80;92.90;;;;;;5067994;28;20127;-82
2021/08/08 14:17:30;;;;;;;0.00;0.00;;;22.60;92.60;;;;;;5061213;28;20047;-84
2021/08/08 14:20:18;;;;;;;0.00;0.00;;;22.60;93.20;;;;;;5065208;28;20048;-85
2021/08/08 14:23:06;;;;;;;0.00;0.00;;;22.70;93.60;;;;;;5063336;28;20515;-83
2021/08/08 14:25:54;;;;;;;0.00;0.00;;;23.00;93.60;;;;;;5058344;28;20036;-85
2021/08/08 14:28:42;;;;;;;0.00;0.00;;;23.30;93.10;;;;;;5060472;28;20145;-83
2021/08/08 14:31:29;;;;;;;0.00;0.00;;;23.60;93.50;;;;;;5066251;28;20521;-84
2021/08/08 14:34:16;;;;;;;0.00;0.00;;;23.60;93.10;;;;;;5061389;28;20051;-84
2021/08/08 14:37:05;;;;;;;0.00;0.00;;;23.70;92.40;;;;;;5059407;28;20044;-83